Time;durP1;ratioP1;P1;durP2;ratioP2;P2;SDS_P1;SDS_P2;PMS_P1;PMS_P2;Temp;Humidity;BMP_temperature;BMP_pressure;BME280_temperature;BME280_humidity;BME280_pressure;Samples;Min_cycle;Max_cycle;Signal;HPM_P1;HPM_P2
2022/02/23 00:00:58;;;;;;;;;;;;;;;;;;5095039;28;19908;-70
2022/02/23 00:03:24;;;;;;;;;;;;;;;;;;5094635;28;19915;-71
2022/02/23 00:05:50;;;;;;;;;;;;;;;;;;5096170;28;19912;-69
2022/02/23 00:08:16;;;;;;;;;;;;;;;;;;5095769;28;19908;-71
2022/02/23 00:10:42;;;;;;;;;;;;;;;;;;5096111;28;19915;-70
2022/02/23 00:13:08;;;;;;;;;;;;;;;;;;5095827;28;20269;-70
2022/02/23 00:15:34;;;;;;;;;;;;;;;;;;5095745;28;19908;-71
2022/02/23 00:18:00;;;;;;;;;;;;;;;;;;5096009;28;19912;-70
2022/02/23 00:20:26;;;;;;;;;;;;;;;;;;5096062;28;19915;-70
2022/02/23 00:22:52;;;;;;;;;;;;;;;;;;5094129;28;19944;-70
2022/02/23 00:25:18;;;;;;;;;;;;;;;;;;5095822;28;20352;-71
2022/02/23 00:27:44;;;;;;;;;;;;;;;;;;5094545;28;19908;-71
2022/02/23 00:30:10;;;;;;;;;;;;;;;;;;5094015;28;20002;-71
2022/02/23 00:32:36;;;;;;;;;;;;;;;;;;5094262;28;19922;-71
2022/02/23 00:35:02;;;;;;;;;;;;;;;;;;5095704;28;19922;-71
2022/02/23 00:37:28;;;;;;;;;;;;;;;;;;5093865;28;19912;-71
2022/02/23 00:39:54;;;;;;;;;;;;;;;;;;5094077;28;19915;-70
2022/02/23 00:42:20;;;;;;;;;;;;;;;;;;5094133;28;19969;-72
2022/02/23 00:44:46;;;;;;;;;;;;;;;;;;5095132;28;19909;-71
2022/02/23 00:47:12;;;;;;;;;;;;;;;;;;5094102;28;19970;-71
2022/02/23 00:49:38;;;;;;;;;;;;;;;;;;5095334;28;19995;-71
2022/02/23 00:52:06;;;;;;;;;;;;;;;;;;5093490;28;20010;-71
2022/02/23 00:54:32;;;;;;;;;;;;;;;;;;5095202;28;19908;-71
2022/02/23 00:56:58;;;;;;;;;;;;;;;;;;5093903;28;19916;-71
2022/02/23 00:59:24;;;;;;;;;;;;;;;;;;5094817;28;19908;-71
2022/02/23 01:01:50;;;;;;;;;;;;;;;;;;5095266;28;19919;-70
2022/02/23 01:04:16;;;;;;;;;;;;;;;;;;5095066;28;20276;-70
2022/02/23 01:06:42;;;;;;;;;;;;;;;;;;5094607;28;19908;-71
2022/02/23 01:09:08;;;;;;;;;;;;;;;;;;5095074;28;19908;-71
2022/02/23 01:11:34;;;;;;;;;;;;;;;;;;5092922;28;20296;-71
2022/02/23 01:14:00;;;;;;;;;;;;;;;;;;5093557;28;19961;-71
2022/02/23 01:16:26;;;;;;;;;;;;;;;;;;5093518;28;19908;-71
2022/02/23 01:18:52;;;;;;;;;;;;;;;;;;5094387;28;19946;-71
2022/02/23 01:21:18;;;;;;;;;;;;;;;;;;5093402;28;19961;-71
2022/02/23 01:23:44;;;;;;;;;;;;;;;;;;5094772;28;19953;-71
2022/02/23 01:26:10;;;;;;;;;;;;;;;;;;5094263;28;19912;-71
2022/02/23 01:28:36;;;;;;;;;;;;;;;;;;5094622;28;20057;-71
2022/02/23 01:31:02;;;;;;;;;;;;;;;;;;5093239;28;19908;-71
2022/02/23 01:33:28;;;;;;;;;;;;;;;;;;5092768;28;19939;-72
2022/02/23 01:35:54;;;;;;;;;;;;;;;;;;5094558;28;19908;-71
2022/02/23 01:38:20;;;;;;;;;;;;;;;;;;5093107;28;19919;-71
2022/02/23 01:40:46;;;;;;;;;;;;;;;;;;5094056;28;19908;-71
2022/02/23 01:43:12;;;;;;;;;;;;;;;;;;5092616;28;19998;-71
2022/02/23 01:45:38;;;;;;;;;;;;;;;;;;5093089;28;19908;-71
2022/02/23 01:48:04;;;;;;;;;;;;;;;;;;5094338;28;19986;-71
2022/02/23 01:50:30;;;;;;;;;;;;;;;;;;5094258;28;20287;-71
2022/02/23 01:52:56;;;;;;;;;;;;;;;;;;5092818;28;19965;-71
2022/02/23 01:55:22;;;;;;;;;;;;;;;;;;5093807;28;19940;-71
2022/02/23 01:57:48;;;;;;;;;;;;;;;;;;5094169;28;19908;-71
2022/02/23 02:00:15;;;;;;;;;;;;;;;;;;5092786;28;20374;-72
2022/02/23 02:02:41;;;;;;;;;;;;;;;;;;5092416;28;19908;-71
2022/02/23 02:05:07;;;;;;;;;;;;;;;;;;5094060;28;20478;-70
2022/02/23 02:07:33;;;;;;;;;;;;;;;;;;5092747;28;19908;-71
2022/02/23 02:09:59;;;;;;;;;;;;;;;;;;5093626;28;20363;-71
2022/02/23 02:12:25;;;;;;;;;;;;;;;;;;5093771;28;19965;-71
2022/02/23 02:14:51;;;;;;;;;;;;;;;;;;5091574;28;19916;-71
2022/02/23 02:17:17;;;;;;;;;;;;;;;;;;5093177;28;20279;-71
2022/02/23 02:19:44;;;;;;;;;;;;;;;;;;5094108;28;19912;-71
2022/02/23 02:22:10;;;;;;;;;;;;;;;;;;5092291;28;20613;-71
2022/02/23 02:24:36;;;;;;;;;;;;;;;;;;5093830;28;19912;-71
2022/02/23 02:27:01;;;;;;;;;;;;;;;;;;5094046;28;19908;-71
2022/02/23 02:29:27;;;;;;;;;;;;;;;;;;5093440;28;20280;-71
2022/02/23 02:31:53;;;;;;;;;;;;;;;;;;5091136;28;19916;-71
2022/02/23 02:34:20;;;;;;;;;;;;;;;;;;5093879;28;19912;-71
2022/02/23 02:36:48;;;;;;;;;;;;;;;;;;5093411;28;19908;-71
2022/02/23 02:39:14;;;;;;;;;;;;;;;;;;5092444;28;19963;-71
2022/02/23 02:41:40;;;;;;;;;;;;;;;;;;5093710;28;19912;-71
2022/02/23 02:44:06;;;;;;;;;;;;;;;;;;5093288;28;20352;-71
2022/02/23 02:46:32;;;;;;;;;;;;;;;;;;5093655;28;19908;-71
2022/02/23 02:48:58;;;;;;;;;;;;;;;;;;5093992;28;19914;-71
2022/02/23 02:51:24;;;;;;;;;;;;;;;;;;5093483;28;19909;-71
2022/02/23 02:53:50;;;;;;;;;;;;;;;;;;5093674;28;19926;-72
2022/02/23 02:56:16;;;;;;;;;;;;;;;;;;5097512;28;19908;-71
2022/02/23 02:58:42;;;;;;;;;;;;;;;;;;5097294;28;19908;-71
2022/02/23 03:01:09;;;;;;;;;;;;;;;;;;5096164;28;20261;-71
2022/02/23 03:03:35;;;;;;;;;;;;;;;;;;5097475;28;19951;-71
2022/02/23 03:06:01;;;;;;;;;;;;;;;;;;5095711;28;19908;-70
2022/02/23 03:08:28;;;;;;;;;;;;;;;;;;5097367;28;19915;-71
2022/02/23 03:10:54;;;;;;;;;;;;;;;;;;5097198;28;19908;-71
2022/02/23 03:13:20;;;;;;;;;;;;;;;;;;5095434;28;20380;-71
2022/02/23 03:15:46;;;;;;;;;;;;;;;;;;5096022;28;19908;-71
2022/02/23 03:18:12;;;;;;;;;;;;;;;;;;5095445;28;19908;-71
2022/02/23 03:20:38;;;;;;;;;;;;;;;;;;5097035;28;20330;-71
2022/02/23 03:23:04;;;;;;;;;;;;;;;;;;5097073;28;20387;-71
2022/02/23 03:25:30;;;;;;;;;;;;;;;;;;5095317;28;20367;-71
2022/02/23 03:27:56;;;;;;;;;;;;;;;;;;5097079;28;19990;-71
2022/02/23 03:30:22;;;;;;;;;;;;;;;;;;5095614;28;19908;-71
2022/02/23 03:32:48;;;;;;;;;;;;;;;;;;5095122;28;19924;-71
2022/02/23 03:35:14;;;;;;;;;;;;;;;;;;5096784;28;19908;-71
2022/02/23 03:37:40;;;;;;;;;;;;;;;;;;5095673;28;19909;-71
2022/02/23 03:40:06;;;;;;;;;;;;;;;;;;5096353;28;19912;-71
2022/02/23 03:42:32;;;;;;;;;;;;;;;;;;5096615;28;19916;-71
2022/02/23 03:44:58;;;;;;;;;;;;;;;;;;5095286;28;20288;-71
2022/02/23 03:47:24;;;;;;;;;;;;;;;;;;5096250;28;19908;-71
2022/02/23 03:49:50;;;;;;;;;;;;;;;;;;5096436;28;19912;-70
2022/02/23 03:52:16;;;;;;;;;;;;;;;;;;5095000;28;19956;-70
2022/02/23 03:54:42;;;;;;;;;;;;;;;;;;5095987;28;19994;-71
2022/02/23 03:57:08;;;;;;;;;;;;;;;;;;5096392;28;20331;-71
2022/02/23 03:59:35;;;;;;;;;;;;;;;;;;5095026;28;19910;-71
2022/02/23 04:02:01;;;;;;;;;;;;;;;;;;5094636;28;20283;-70
2022/02/23 04:04:27;;;;;;;;;;;;;;;;;;5096258;28;19986;-72
2022/02/23 04:06:53;;;;;;;;;;;;;;;;;;5094590;28;19914;-71
2022/02/23 04:09:19;;;;;;;;;;;;;;;;;;5095757;28;19954;-69
2022/02/23 04:11:45;;;;;;;;;;;;;;;;;;5094529;28;19921;-69
2022/02/23 04:14:11;;;;;;;;;;;;;;;;;;5096095;28;20275;-69
2022/02/23 04:16:37;;;;;;;;;;;;;;;;;;5095614;28;20011;-69
2022/02/23 04:19:03;;;;;;;;;;;;;;;;;;5094647;28;20257;-69
2022/02/23 04:21:29;;;;;;;;;;;;;;;;;;5094258;28;20360;-70
2022/02/23 04:23:55;;;;;;;;;;;;;;;;;;5094587;28;20280;-70
2022/02/23 04:26:21;;;;;;;;;;;;;;;;;;5095943;28;19908;-69
2022/02/23 04:28:47;;;;;;;;;;;;;;;;;;5094007;28;19915;-69
2022/02/23 04:31:13;;;;;;;;;;;;;;;;;;5095826;28;19961;-69
2022/02/23 04:33:39;;;;;;;;;;;;;;;;;;5094294;28;19965;-69
2022/02/23 04:36:06;;;;;;;;;;;;;;;;;;5095314;28;19908;-70
2022/02/23 04:38:32;;;;;;;;;;;;;;;;;;5094271;28;19909;-70
2022/02/23 04:40:58;;;;;;;;;;;;;;;;;;5094208;28;19908;-70
2022/02/23 04:43:24;;;;;;;;;;;;;;;;;;5095104;28;20284;-70
2022/02/23 04:45:50;;;;;;;;;;;;;;;;;;5094090;28;19919;-70
2022/02/23 04:48:16;;;;;;;;;;;;;;;;;;5095441;28;19908;-69
2022/02/23 04:50:42;;;;;;;;;;;;;;;;;;5093646;28;19931;-69
2022/02/23 04:53:08;;;;;;;;;;;;;;;;;;5095316;28;19923;-69
2022/02/23 04:55:35;;;;;;;;;;;;;;;;;;5095412;28;19908;-69
2022/02/23 04:58:07;;;;;;;;;;;;;;;;;;5093514;28;19915;-70
2022/02/23 05:00:33;;;;;;;;;;;;;;;;;;5094190;28;19908;-69
2022/02/23 05:02:59;;;;;;;;;;;;;;;;;;5093773;28;19961;-71
2022/02/23 05:05:25;;;;;;;;;;;;;;;;;;5092214;28;19961;-71
2022/02/23 05:07:51;;;;;;;;;;;;;;;;;;5094975;28;19908;-71
2022/02/23 05:10:17;;;;;;;;;;;;;;;;;;5093663;28;19908;-70
2022/02/23 05:12:43;;;;;;;;;;;;;;;;;;5092919;28;20475;-72
2022/02/23 05:15:09;;;;;;;;;;;;;;;;;;5092987;28;19908;-70
2022/02/23 05:17:35;;;;;;;;;;;;;;;;;;5092278;28;19913;-71
2022/02/23 05:20:04;;;;;;;;;;;;;;;;;;5093024;28;19908;-72
2022/02/23 05:22:30;;;;;;;;;;;;;;;;;;5094730;28;19912;-73
2022/02/23 05:24:56;;;;;;;;;;;;;;;;;;5093077;28;19931;-72
2022/02/23 05:27:22;;;;;;;;;;;;;;;;;;5094623;28;19915;-72
2022/02/23 05:29:48;;;;;;;;;;;;;;;;;;5094542;28;20382;-72
2022/02/23 05:32:14;;;;;;;;;;;;;;;;;;5094123;28;19919;-72
2022/02/23 05:34:40;;;;;;;;;;;;;;;;;;5094259;28;19912;-73
2022/02/23 05:37:06;;;;;;;;;;;;;;;;;;5092035;28;20394;-72
2022/02/23 05:39:32;;;;;;;;;;;;;;;;;;5092701;28;19912;-73
2022/02/23 05:41:58;;;;;;;;;;;;;;;;;;5092964;28;19909;-72
2022/02/23 05:44:24;;;;;;;;;;;;;;;;;;5093097;28;20380;-72
2022/02/23 05:46:50;;;;;;;;;;;;;;;;;;5094020;28;19912;-72
2022/02/23 05:49:16;;;;;;;;;;;;;;;;;;5093081;28;20299;-73
2022/02/23 05:51:42;;;;;;;;;;;;;;;;;;5094190;28;19954;-73
2022/02/23 05:54:08;;;;;;;;;;;;;;;;;;5093867;28;19914;-72
2022/02/23 05:56:34;;;;;;;;;;;;;;;;;;5094177;28;19908;-73
2022/02/23 05:59:00;;;;;;;;;;;;;;;;;;5092867;28;19919;-73
2022/02/23 06:01:26;;;;;;;;;;;;;;;;;;5092474;28;19994;-73
2022/02/23 06:03:52;;;;;;;;;;;;;;;;;;5089085;28;19919;-72
2022/02/23 06:06:18;;;;;;;;;;;;;;;;;;5087556;28;19915;-74
2022/02/23 06:08:44;;;;;;;;;;;;;;;;;;5092852;28;20312;-73
2022/02/23 06:11:11;;;;;;;;;;;;;;;;;;5092466;28;19923;-75
2022/02/23 06:13:37;;;;;;;;;;;;;;;;;;5110963;28;19923;-73
2022/02/23 06:16:03;;;;;;;;;;;;;;;;;;5112033;28;19907;-72
2022/02/23 06:18:28;;;;;;;;;;;;;;;;;;5110598;28;20302;-75
2022/02/23 06:20:55;;;;;;;;;;;;;;;;;;5091501;28;20360;-73
2022/02/23 06:23:22;;;;;;;;;;;;;;;;;;5092738;28;19962;-72
2022/02/23 06:25:48;;;;;;;;;;;;;;;;;;5091421;28;19937;-71
2022/02/23 06:28:14;;;;;;;;;;;;;;;;;;5091507;28;19909;-72
2022/02/23 06:30:40;;;;;;;;;;;;;;;;;;5095647;28;20383;-71
2022/02/23 06:33:06;;;;;;;;;;;;;;;;;;5095431;28;19924;-71
2022/02/23 06:35:33;;;;;;;;;;;;;;;;;;5095446;28;19908;-73
2022/02/23 06:37:59;;;;;;;;;;;;;;;;;;5096230;28;19908;-72
2022/02/23 06:40:25;;;;;;;;;;;;;;;;;;5097040;28;20302;-74
2022/02/23 06:42:51;;;;;;;;;;;;;;;;;;5096689;28;19908;-74
2022/02/23 06:45:17;;;;;;;;;;;;;;;;;;5097291;28;19918;-72
2022/02/23 06:47:43;;;;;;;;;;;;;;;;;;5096072;28;19975;-73
2022/02/23 06:50:09;;;;;;;;;;;;;;;;;;5096795;28;20245;-72
2022/02/23 06:52:35;;;;;;;;;;;;;;;;;;5097010;28;19920;-72
2022/02/23 06:55:01;;;;;;;;;;;;;;;;;;5097416;28;19944;-72
2022/02/23 06:57:27;;;;;;;;;;;;;;;;;;5095010;28;19912;-73
2022/02/23 06:59:53;;;;;;;;;;;;;;;;;;5095086;28;19987;-73
2022/02/23 07:02:19;;;;;;;;;;;;;;;;;;5095073;28;19991;-73
2022/02/23 07:04:45;;;;;;;;;;;;;;;;;;5095096;28;20280;-71
2022/02/23 07:07:11;;;;;;;;;;;;;;;;;;5095622;28;20321;-71
2022/02/23 07:09:37;;;;;;;;;;;;;;;;;;5095581;28;19908;-72
2022/02/23 07:12:04;;;;;;;;;;;;;;;;;;5096086;28;20012;-70
2022/02/23 07:14:30;;;;;;;;;;;;;;;;;;5088635;28;19919;-71
2022/02/23 07:16:56;;;;;;;;;;;;;;;;;;5093534;28;20305;-72
2022/02/23 07:19:24;;;;;;;;;;;;;;;;;;5094545;28;19909;-72
2022/02/23 07:21:50;;;;;;;;;;;;;;;;;;5094217;28;19912;-72
2022/02/23 07:24:16;;;;;;;;;;;;;;;;;;5092410;28;19920;-71
2022/02/23 07:26:42;;;;;;;;;;;;;;;;;;5093780;28;19908;-71
2022/02/23 07:29:08;;;;;;;;;;;;;;;;;;5093900;28;20353;-71
2022/02/23 07:31:35;;;;;;;;;;;;;;;;;;5092366;28;20187;-72
2022/02/23 07:34:01;;;;;;;;;;;;;;;;;;5090975;28;20007;-72
2022/02/23 07:36:27;;;;;;;;;;;;;;;;;;5093903;28;19998;-73
2022/02/23 07:38:53;;;;;;;;;;;;;;;;;;5093981;28;19912;-71
2022/02/23 07:41:23;;;;;;;;;;;;;;;;;;5094406;28;20413;-71
2022/02/23 07:43:49;;;;;;;;;;;;;;;;;;5094507;28;19916;-71
2022/02/23 07:46:15;;;;;;;;;;;;;;;;;;5094081;28;19923;-72
2022/02/23 07:48:41;;;;;;;;;;;;;;;;;;5094286;28;19908;-71
2022/02/23 07:51:07;;;;;;;;;;;;;;;;;;5095506;28;19930;-72
2022/02/23 07:53:33;;;;;;;;;;;;;;;;;;5093861;28;19920;-72
2022/02/23 07:55:59;;;;;;;;;;;;;;;;;;5095362;28;19954;-73
2022/02/23 07:58:25;;;;;;;;;;;;;;;;;;5094018;28;20322;-73
2022/02/23 08:00:51;;;;;;;;;;;;;;;;;;5093825;28;19915;-72
2022/02/23 08:03:17;;;;;;;;;;;;;;;;;;5095403;28;19908;-71
2022/02/23 08:05:43;;;;;;;;;;;;;;;;;;5094202;28;20002;-72
2022/02/23 08:08:09;;;;;;;;;;;;;;;;;;5093691;28;19936;-71
2022/02/23 08:10:35;;;;;;;;;;;;;;;;;;5095444;28;19912;-72
2022/02/23 08:13:05;;;;;;;;;;;;;;;;;;5093696;28;19927;-72
2022/02/23 08:21:01;;;;;;;;;;;;;;;;;;5094940;28;19923;-70
2022/02/23 08:23:27;;;;;;;;;;;;;;;;;;5095190;28;20387;-75
2022/02/23 08:25:53;;;;;;;;;;;;;;;;;;5095332;28;19933;-72
2022/02/23 08:28:19;;;;;;;;;;;;;;;;;;5093509;28;19912;-73
2022/02/23 08:30:48;;;;;;;;;;;;;;;;;;5094016;28;20049;-72
2022/02/23 08:33:14;;;;;;;;;;;;;;;;;;5093508;28;19970;-71
2022/02/23 08:35:40;;;;;;;;;;;;;;;;;;5087741;28;19916;-73
2022/02/23 08:38:11;;;;;;;;;;;;;;;;;;5094290;28;19916;-72
2022/02/23 08:40:37;;;;;;;;;;;;;;;;;;5093651;28;20394;-72
2022/02/23 08:43:03;;;;;;;;;;;;;;;;;;5094270;28;19987;-72
2022/02/23 08:45:33;;;;;;;;;;;;;;;;;;5094240;28;19914;-73
2022/02/23 08:47:59;;;;;;;;;;;;;;;;;;5093740;28;19908;-73
2022/02/23 08:50:25;;;;;;;;;;;;;;;;;;5094372;28;19909;-73
2022/02/23 08:52:51;;;;;;;;;;;;;;;;;;5093643;28;19916;-74
2022/02/23 08:55:17;;;;;;;;;;;;;;;;;;5092953;28;19908;-73
2022/02/23 08:57:43;;;;;;;;;;;;;;;;;;5093788;28;19915;-74
2022/02/23 09:00:09;;;;;;;;;;;;;;;;;;5094184;28;20284;-74
2022/02/23 09:02:35;;;;;;;;;;;;;;;;;;5094156;28;19912;-73
2022/02/23 09:05:01;;;;;;;;;;;;;;;;;;5093947;28;19916;-72
2022/02/23 09:07:27;;;;;;;;;;;;;;;;;;5092793;28;19912;-73
2022/02/23 09:09:53;;;;;;;;;;;;;;;;;;5093459;28;20034;-73
2022/02/23 09:12:23;;;;;;;;;;;;;;;;;;5092392;28;20074;-73
2022/02/23 09:14:49;;;;;;;;;;;;;;;;;;5094117;28;20291;-72
2022/02/23 09:17:15;;;;;;;;;;;;;;;;;;5093284;28;19912;-73
2022/02/23 09:19:42;;;;;;;;;;;;;;;;;;5093973;28;19908;-73
2022/02/23 09:22:09;;;;;;;;;;;;;;;;;;5091314;28;19908;-73
2022/02/23 09:24:35;;;;;;;;;;;;;;;;;;5092150;28;19908;-72
2022/02/23 09:27:02;;;;;;;;;;;;;;;;;;5093869;28;20364;-72
2022/02/23 09:29:31;;;;;;;;;;;;;;;;;;5093952;28;19938;-73
2022/02/23 09:31:58;;;;;;;;;;;;;;;;;;5091882;28;19912;-73
2022/02/23 09:34:24;;;;;;;;;;;;;;;;;;5093969;28;19908;-73
2022/02/23 09:36:51;;;;;;;;;;;;;;;;;;5093773;28;19912;-73
2022/02/23 09:39:18;;;;;;;;;;;;;;;;;;5091920;28;19909;-73
2022/02/23 09:41:46;;;;;;;;;;;;;;;;;;5093171;28;20017;-73
2022/02/23 09:44:12;;;;;;;;;;;;;;;;;;5092039;28;20038;-73
2022/02/23 09:46:39;;;;;;;;;;;;;;;;;;5091534;28;20014;-72
2022/02/23 09:49:06;;;;;;;;;;;;;;;;;;5090537;28;20245;-73
2022/02/23 09:51:32;;;;;;;;;;;;;;;;;;5090281;28;19908;-72
2022/02/23 09:53:58;;;;;;;;;;;;;;;;;;5090002;28;19924;-73
2022/02/23 09:56:24;;;;;;;;;;;;;;;;;;5090301;28;20363;-73
2022/02/23 09:58:50;;;;;;;;;;;;;;;;;;5085482;28;19924;-73
2022/02/23 10:01:16;;;;;;;;;;;;;;;;;;5104666;28;19908;-73
2022/02/23 10:03:45;;;;;;;;;;;;;;;;;;5092724;28;19908;-73
2022/02/23 10:06:12;;;;;;;;;;;;;;;;;;5090311;28;19908;-73
2022/02/23 10:08:41;;;;;;;;;;;;;;;;;;5091882;28;19908;-73
2022/02/23 10:11:10;;;;;;;;;;;;;;;;;;5090775;28;19916;-74
2022/02/23 10:13:39;;;;;;;;;;;;;;;;;;5089413;28;21636;-72
2022/02/23 10:16:05;;;;;;;;;;;;;;;;;;5091517;28;19908;-74
2022/02/23 10:18:31;;;;;;;;;;;;;;;;;;5092919;28;19912;-74
2022/02/23 10:20:57;;;;;;;;;;;;;;;;;;5091377;28;19916;-74
2022/02/23 10:23:25;;;;;;;;;;;;;;;;;;5093026;28;19917;-74
2022/02/23 10:27:38;;;;;;;;;;;;;;;;;;5089590;27;19916;-70
2022/02/23 10:34:11;;;;;;;;;;;;;;;;;;5109900;27;20529;-82
2022/02/23 10:36:39;;;;;;;;;;;;;;;;;;5129183;28;19916;-77
2022/02/23 10:40:08;;;;;;;;;;;;;;;;;;5090150;27;20402;-77
2022/02/23 10:43:09;;;;;;;;;;;;;;;;;;5090629;27;19913;-83
2022/02/23 10:45:35;;;;;;;;;;;;;;;;;;5090140;28;19986;-80
2022/02/23 10:50:24;;;;;;;;;;;;;;;;;;5091518;27;20394;-79
2022/02/23 10:54:08;;;;;;;;;;;;;;;;;;5151819;27;20364;-81
2022/02/23 10:56:34;;;;;;;;;;;;;;;;;;5152857;27;19947;-85
2022/02/23 10:59:00;;;;;;;;;;;;;;;;;;5155174;27;20275;-78
2022/02/23 11:07:51;;;;;;;;;;;;;;;;;;5092813;27;19923;-78
2022/02/23 11:10:18;;;;;;;;;;;;;;;;;;5092266;28;19950;-77
2022/02/23 11:14:44;;;;;;;;;;;;;;;;;;5091513;27;20307;-83
2022/02/23 11:17:10;;;;;;;;;;;;;;;;;;5090163;28;20269;-79
2022/02/23 11:19:36;;;;;;;;;;;;;;;;;;5091990;28;19908;-84
2022/02/23 11:22:02;;;;;;;;;;;;;;;;;;5092312;28;19919;-85
2022/02/23 11:26:03;;;;;;;;;;;;;;;;;;5112762;27;19916;-79
2022/02/23 11:28:29;;;;;;;;;;;;;;;;;;5113602;28;19918;-82
2022/02/23 11:30:56;;;;;;;;;;;;;;;;;;5113355;28;20308;-86
2022/02/23 11:33:22;;;;;;;;;;;;;;;;;;5112220;28;19908;-86
2022/02/23 11:35:49;;;;;;;;;;;;;;;;;;5113028;28;19915;-82
2022/02/23 11:38:15;;;;;;;;;;;;;;;;;;5107143;28;19908;-85
2022/02/23 11:42:46;;;;;;;;;;;;;;;;;;5114199;27;19912;-83
2022/02/23 11:45:13;;;;;;;;;;;;;;;;;;5113136;28;19995;-84
2022/02/23 11:47:39;;;;;;;;;;;;;;;;;;5115714;28;19924;-84
2022/02/23 11:50:05;;;;;;;;;;;;;;;;;;5114823;28;19914;-83
2022/02/23 11:52:33;;;;;;;;;;;;;;;;;;5099207;28;19947;-87
2022/02/23 11:56:41;;;;;;;;;;;;;;;;;;5113269;27;19947;-78
2022/02/23 12:01:25;;;;;;;;;;;;;;;;;;5095117;27;19923;-84
2022/02/23 12:03:51;;;;;;;;;;;;;;;;;;5097155;28;19919;-85
2022/02/23 12:06:17;;;;;;;;;;;;;;;;;;5093477;28;19908;-85
2022/02/23 12:09:51;;;;;;;;;;;;;;;;;;5093245;27;20434;-84
2022/02/23 12:14:33;;;;;;;;;;;;;;;;;;5133197;27;20015;-85
2022/02/23 12:17:00;;;;;;;;;;;;;;;;;;5136568;28;19912;-82
2022/02/23 12:19:57;;;;;;;;;;;;;;;;;;5094160;27;19923;-86
2022/02/23 12:24:48;;;;;;;;;;;;;;;;;;5112323;27;19916;-83
2022/02/23 12:29:06;;;;;;;;;;;;;;;;;;5109401;27;19922;-85
2022/02/23 12:31:32;;;;;;;;;;;;;;;;;;5113472;28;19926;-87
2022/02/23 12:33:58;;;;;;;;;;;;;;;;;;5110489;28;19912;-84
2022/02/23 12:39:41;;;;;;;;;;;;;;;;;;5091511;28;19919;-82
2022/02/23 12:44:42;;;;;;;;;;;;;;;;;;5033897;28;19914;-87
2022/02/23 12:47:09;;;;;;;;;;;;;;;;;;5030969;28;20038;-86
2022/02/23 12:53:14;;;;;;;;;;;;;;;;;;5096074;27;19923;-85
2022/02/23 12:55:40;;;;;;;;;;;;;;;;;;5094273;28;19943;-88
2022/02/23 12:58:06;;;;;;;;;;;;;;;;;;5091257;28;20276;-83
2022/02/23 13:01:35;;;;;;;;;;;;;;;;;;5113530;27;19912;-86
2022/02/23 13:04:01;;;;;;;;;;;;;;;;;;5111899;28;19965;-86
2022/02/23 13:06:27;;;;;;;;;;;;;;;;;;5111261;28;19908;-74
2022/02/23 13:13:42;;;;;;;;;;;;;;;;;;5123725;27;19916;-74
2022/02/23 13:16:08;;;;;;;;;;;;;;;;;;5089735;28;19912;-81
2022/02/23 13:20:34;;;;;;;;;;;;;;;;;;5111969;27;19922;-84
2022/02/23 13:25:44;;;;;;;;;;;;;;;;;;5111768;27;20391;-76
2022/02/23 13:28:59;;;;;;;;;;;;;;;;;;5091284;27;19923;-72
2022/02/23 13:31:25;;;;;;;;;;;;;;;;;;5090588;28;20295;-71
2022/02/23 13:38:06;;;;;;;;;;;;;;;;;;5111168;27;19922;-71
2022/02/23 13:40:32;;;;;;;;;;;;;;;;;;5111226;28;19913;-72
2022/02/23 13:42:59;;;;;;;;;;;;;;;;;;5109797;28;19914;-71
2022/02/23 13:45:25;;;;;;;;;;;;;;;;;;5111012;28;19999;-72
2022/02/23 13:47:51;;;;;;;;;;;;;;;;;;5111022;28;19946;-72
2022/02/23 13:50:20;;;;;;;;;;;;;;;;;;5110007;28;19953;-72
2022/02/23 13:52:46;;;;;;;;;;;;;;;;;;5109345;28;19915;-73
2022/02/23 13:59:15;;;;;;;;;;;;;;;;;;5090454;28;19923;-73
2022/02/23 14:01:41;;;;;;;;;;;;;;;;;;5090131;28;19962;-72
2022/02/23 14:06:27;;;;;;;;;;;;;;;;;;5090531;27;20665;-69
2022/02/23 14:08:53;;;;;;;;;;;;;;;;;;5091474;28;19947;-69
2022/02/23 14:11:20;;;;;;;;;;;;;;;;;;5091339;28;19938;-70
2022/02/23 14:17:00;;;;;;;;;;;;;;;;;;5091517;27;19943;-69
2022/02/23 14:19:28;;;;;;;;;;;;;;;;;;5089489;28;20360;-69
2022/02/23 14:21:54;;;;;;;;;;;;;;;;;;5089824;28;19915;-69
2022/02/23 14:24:21;;;;;;;;;;;;;;;;;;5089715;28;19999;-69
2022/02/23 14:27:02;;;;;;;;;;;;;;;;;;5111578;27;19916;-70
2022/02/23 14:29:31;;;;;;;;;;;;;;;;;;5111360;28;19947;-70
2022/02/23 14:31:57;;;;;;;;;;;;;;;;;;5111373;28;19911;-69
2022/02/23 14:34:23;;;;;;;;;;;;;;;;;;5109727;28;19977;-70
2022/02/23 14:38:20;;;;;;;;;;;;;;;;;;5111667;27;19916;-69
2022/02/23 14:40:46;;;;;;;;;;;;;;;;;;5111312;28;19919;-69
2022/02/23 14:43:12;;;;;;;;;;;;;;;;;;5111577;28;19912;-69
2022/02/23 14:47:33;;;;;;;;;;;;;;;;;;5111989;27;20244;-69
2022/02/23 14:49:59;;;;;;;;;;;;;;;;;;5111657;28;20011;-69
2022/02/23 14:52:54;;;;;;;;;;;;;;;;;;5153267;27;19915;-71
2022/02/23 14:55:21;;;;;;;;;;;;;;;;;;5133854;27;19947;-70
2022/02/23 14:57:48;;;;;;;;;;;;;;;;;;5152430;27;19945;-69
2022/02/23 15:00:14;;;;;;;;;;;;;;;;;;5151943;27;19918;-69
2022/02/23 15:02:40;;;;;;;;;;;;;;;;;;5152445;27;19911;-70
2022/02/23 15:05:08;;;;;;;;;;;;;;;;;;5152743;27;20319;-68
2022/02/23 15:08:27;;;;;;;;;;;;;;;;;;5112065;27;19916;-69
2022/02/23 15:10:53;;;;;;;;;;;;;;;;;;5110182;28;19951;-70
2022/02/23 15:15:02;;;;;;;;;;;;;;;;;;5091867;27;19923;-69
2022/02/23 15:17:28;;;;;;;;;;;;;;;;;;5090919;28;19912;-69
2022/02/23 15:19:54;;;;;;;;;;;;;;;;;;5089843;28;19908;-68
2022/02/23 15:22:20;;;;;;;;;;;;;;;;;;5090013;28;20438;-69
2022/02/23 15:24:46;;;;;;;;;;;;;;;;;;5089482;28;19912;-69
2022/02/23 15:27:12;;;;;;;;;;;;;;;;;;5089900;28;19915;-69
2022/02/23 15:29:38;;;;;;;;;;;;;;;;;;5089448;28;20280;-70
2022/02/23 15:32:04;;;;;;;;;;;;;;;;;;5089744;28;19954;-70
2022/02/23 15:34:30;;;;;;;;;;;;;;;;;;5089593;28;19917;-70
2022/02/23 15:36:56;;;;;;;;;;;;;;;;;;5089240;28;20383;-70
2022/02/23 15:39:22;;;;;;;;;;;;;;;;;;5091506;28;20356;-70
2022/02/23 15:41:48;;;;;;;;;;;;;;;;;;5090825;28;20290;-69
2022/02/23 15:44:15;;;;;;;;;;;;;;;;;;5090458;28;19909;-70
2022/02/23 15:46:41;;;;;;;;;;;;;;;;;;5089431;28;19913;-70
2022/02/23 15:49:07;;;;;;;;;;;;;;;;;;5090725;28;19908;-70
2022/02/23 15:51:33;;;;;;;;;;;;;;;;;;5090227;28;20003;-69
2022/02/23 15:53:59;;;;;;;;;;;;;;;;;;5089231;28;20447;-69
2022/02/23 15:56:25;;;;;;;;;;;;;;;;;;5089220;28;19915;-69
2022/02/23 15:58:51;;;;;;;;;;;;;;;;;;5088845;28;19916;-71
2022/02/23 16:01:18;;;;;;;;;;;;;;;;;;5089214;28;19966;-70
2022/02/23 16:03:44;;;;;;;;;;;;;;;;;;5090409;28;20288;-69
2022/02/23 16:06:10;;;;;;;;;;;;;;;;;;5088772;28;19916;-70
2022/02/23 16:08:36;;;;;;;;;;;;;;;;;;5089157;28;19908;-70
2022/02/23 16:11:02;;;;;;;;;;;;;;;;;;5090604;28;19951;-70
2022/02/23 16:13:28;;;;;;;;;;;;;;;;;;5088242;28;19920;-70
2022/02/23 16:15:54;;;;;;;;;;;;;;;;;;5088978;28;19975;-69
2022/02/23 16:18:20;;;;;;;;;;;;;;;;;;5090196;28;19958;-70
2022/02/23 16:20:46;;;;;;;;;;;;;;;;;;5088450;28;19920;-70
2022/02/23 16:23:12;;;;;;;;;;;;;;;;;;5090340;28;19909;-71
2022/02/23 16:25:43;;;;;;;;;;;;;;;;;;5079198;28;20108;-69
2022/02/23 16:28:09;;;;;;;;;;;;;;;;;;5076422;28;19908;-69
2022/02/23 16:30:35;;;;;;;;;;;;;;;;;;5076413;28;19916;-69
2022/02/23 16:33:01;;;;;;;;;;;;;;;;;;5075950;28;19920;-69
2022/02/23 16:35:29;;;;;;;;;;;;;;;;;;5076329;28;19959;-69
2022/02/23 16:37:55;;;;;;;;;;;;;;;;;;5076296;28;19909;-69
2022/02/23 16:40:21;;;;;;;;;;;;;;;;;;5075862;28;19919;-70
2022/02/23 16:42:47;;;;;;;;;;;;;;;;;;5074909;28;20371;-69
2022/02/23 16:45:14;;;;;;;;;;;;;;;;;;5074884;28;19926;-69
2022/02/23 16:47:40;;;;;;;;;;;;;;;;;;5075727;28;19908;-69
2022/02/23 16:50:06;;;;;;;;;;;;;;;;;;5076476;28;19909;-69
2022/02/23 16:52:32;;;;;;;;;;;;;;;;;;5075983;28;19912;-70
2022/02/23 16:54:58;;;;;;;;;;;;;;;;;;5075621;28;19917;-69
2022/02/23 16:57:24;;;;;;;;;;;;;;;;;;5075958;28;19909;-71
2022/02/23 16:59:50;;;;;;;;;;;;;;;;;;5075889;28;19908;-71
2022/02/23 17:02:16;;;;;;;;;;;;;;;;;;5075475;28;19908;-70
2022/02/23 17:04:42;;;;;;;;;;;;;;;;;;5075837;28;19915;-70
2022/02/23 17:07:08;;;;;;;;;;;;;;;;;;5074483;28;19962;-70
2022/02/23 17:09:34;;;;;;;;;;;;;;;;;;5075458;28;19908;-69
2022/02/23 17:12:00;;;;;;;;;;;;;;;;;;5074261;28;19909;-70
2022/02/23 17:14:26;;;;;;;;;;;;;;;;;;5091244;28;20015;-71
2022/02/23 17:16:52;;;;;;;;;;;;;;;;;;5077279;28;19999;-70
2022/02/23 17:19:18;;;;;;;;;;;;;;;;;;5077662;28;20316;-70
2022/02/23 17:21:44;;;;;;;;;;;;;;;;;;5077623;28;20003;-70
2022/02/23 17:24:10;;;;;;;;;;;;;;;;;;5077165;28;19908;-71
2022/02/23 17:26:36;;;;;;;;;;;;;;;;;;5095697;28;19908;-71
2022/02/23 17:29:03;;;;;;;;;;;;;;;;;;5095166;28;19915;-71
2022/02/23 17:31:29;;;;;;;;;;;;;;;;;;5095734;28;19908;-71
2022/02/23 17:33:55;;;;;;;;;;;;;;;;;;5095533;28;19923;-71
2022/02/23 17:36:21;;;;;;;;;;;;;;;;;;5076185;28;20640;-70
2022/02/23 17:38:47;;;;;;;;;;;;;;;;;;5095516;28;19908;-71
2022/02/23 17:41:13;;;;;;;;;;;;;;;;;;5095656;28;20372;-71
2022/02/23 17:43:39;;;;;;;;;;;;;;;;;;5076831;28;20004;-71
2022/02/23 17:46:05;;;;;;;;;;;;;;;;;;5095452;28;19934;-71
2022/02/23 17:48:31;;;;;;;;;;;;;;;;;;5095288;28;19912;-71
2022/02/23 17:50:57;;;;;;;;;;;;;;;;;;5094731;28;19908;-71
2022/02/23 17:53:27;;;;;;;;;;;;;;;;;;5076968;28;19923;-71
2022/02/23 17:55:53;;;;;;;;;;;;;;;;;;5095091;28;20322;-71
2022/02/23 17:58:19;;;;;;;;;;;;;;;;;;5076468;28;19908;-71
2022/02/23 18:00:45;;;;;;;;;;;;;;;;;;5076815;28;19994;-71